Предлагаем Вашему вниманию английскую версию страницы: AUTOTAF.ME USHH - aviation weather forecast Khanty-Mansijsk

AUTOTAF USHH - авиапрогноз Ханты-Мансийск

Сегодня рассвет 03:03 UTC, восход солнца 03:54 UTC,
местный полдень 07:36 UTC, заход солнца 11:18 UTC,
наступление темноты 12:08 UTC.

Краткий прогноз USHH на 9 часов

AUTOTAF.ME USHH 271400Z 2715/2724 10005MPS 9999 OVC011    
  FM271800 11005MPS 1500 SN OVC010 
  FM272100 12005MPS 9999 -SN BKN010

Детальный прогноз USHH на 24 часа

AUTOTAF.ME USHH 271400Z 2715/2815 10005MPS 9999 OVC011 TXM08/2812Z TNM22/2715Z  
  FM271800 11005MPS 1500 SN OVC010 
  FM272100 12005MPS 9999 -SN BKN010  
  FM280300 14007MPS 1500 SN OVC008 
  FM280600 12003MPS 1500 SN BR OVC006 
  FM280900 VRB02MPS 1000 SN BR OVC003 
  FM281200 VRB02MPS 0500 SN FZFG VV002

Подробный табличный прогноз

Время (UTC) miniAUTOTAF на 3 ч WX FZLVL
M AGL
ICE TURB Т
(°С)
Тd
(°С)
f(%) QNH
(гПа)
WIND/T
12 07004MPS 9999 OVC031 SFC MOD FL40/FL50 -22 -25 73 1027 ...
15 10005MPS 9999 OVC011 SFC MOD FL20/FL30 -22 -25 74 1027 ...
18 11005MPS 1500 SN OVC010 SN SFC MOD FL10/FL20 -21 -24 75 1025 ...
21 12005MPS 9999 -SN BKN010 -SN SFC MOD FL10/FL20 -21 -24 76 1024 ...
28.01.2021
00 13006MPS 9999 BKN009 SFC MOD FL10/FL170 MOD SFC/FL20 -19 -22 79 1021 ...
03 14007MPS 1500 SN OVC008 SN SFC MOD FL70/FL170 MOD SFC/FL20 -17 -20 81 1017 ...
06 12003MPS 1500 SN BR OVC006 SN BR SFC MOD FL110/FL120 MOD SFC/FL20 -14 -16 86 1015 ...
09 VRB02MPS 1000 SN BR OVC003 SN BR SFC MOD FL120/FL130 MOD SFC/FL20 -9 -11 90 1012 ...
12 VRB02MPS 0500 SN FZFG VV002 SN FZFG SFC FBL FL10/FL170 MOD SFC/FL20 -8 -10 90 1011 ...
15 VRB02MPS 0500 SN FZFG VV002 SN FZFG SFC MOD FL170/FL180 MOD SFC/FL20 -9 -10 90 1010 ...
18 36004MPS 1500 SN BR OVC005 SN BR SFC FBL FL10/FL120 -8 -9 89 1011 ...
21 31005MPS 1000 BR BKN003 BR SFC MOD FL10/FL90 -10 -12 85 1015 ...
29.01.2021
00 31003MPS 1000 BR BKN003 BR SFC MOD FL10/FL20 -12 -15 84 1019 ...
03 33003MPS 1000 BR BKN003 BR SFC MOD FL10/FL20 -15 -18 81 1021 ...
06 36004MPS 9999 BKN010 SFC MOD FL20/FL30 -18 -22 72 1025 ...
09 02004MPS 9999 BKN011 SFC MOD FL20/FL40 -21 -25 68 1028 ...


Широта 61.0285°, долгота 69.08647°, высота 42 м абс.
Средняя высота рельефа местности 32 м абс.
Прогнозы обновляются четыре раза в сутки: в 02, 08, 14, 20 ч всемирного времени.


Выбрать прогноз по другой модели Ханты-Мансийск
Онлайн-сводка гроз по Ханты-Мансийск (для РФ и ближнего зарубежья)
Карта фактических гроз в окрестностях Ханты-Мансийск
Динамические прогностические карты (ventusky.com)
Прогностическая карта высоты нижней границы облаков по Ханты-Мансийск (windy.com)
Выбрать другой город

Прогноз предназначен для личного научно-познавательного использования частными лицами
и не предназначен для принятия важных решений и выполнения реальных полётов воздушных судов

При копировании или ином использовании любых материалов данного сайта ссылка на © meteocenter.asia обязательна.

0.72/1.1